sensor_id;sensor_type;location;lat;lon;timestamp;pressure;altitude;pressure_sealevel;temperature;humidity
59104;BME280;51449;51.676;5.812;2023-12-20T00:01:05;101512.88;;;8.29;89.76
59104;BME280;51449;51.676;5.812;2023-12-20T00:03:27;101514.28;;;8.26;89.75
59104;BME280;51449;51.676;5.812;2023-12-20T00:05:54;101520.69;;;8.22;89.66
59104;BME280;51449;51.676;5.812;2023-12-20T00:08:17;101523.53;;;8.17;89.06
59104;BME280;51449;51.676;5.812;2023-12-20T00:10:38;101522.00;;;8.10;88.90
59104;BME280;51449;51.676;5.812;2023-12-20T00:13:00;101514.44;;;8.02;88.42
59104;BME280;51449;51.676;5.812;2023-12-20T00:15:22;101518.59;;;8.00;88.63
59104;BME280;51449;51.676;5.812;2023-12-20T00:17:44;101524.47;;;7.93;88.08
59104;BME280;51449;51.676;5.812;2023-12-20T00:20:06;101537.94;;;7.89;87.87
59104;BME280;51449;51.676;5.812;2023-12-20T00:22:29;101527.38;;;7.83;87.85
59104;BME280;51449;51.676;5.812;2023-12-20T00:24:50;101521.13;;;7.77;87.53
59104;BME280;51449;51.676;5.812;2023-12-20T00:27:12;101527.50;;;7.72;88.03
59104;BME280;51449;51.676;5.812;2023-12-20T00:29:34;101529.25;;;7.68;88.09
59104;BME280;51449;51.676;5.812;2023-12-20T00:31:56;101527.91;;;7.66;87.67
59104;BME280;51449;51.676;5.812;2023-12-20T00:34:17;101524.63;;;7.64;87.73
59104;BME280;51449;51.676;5.812;2023-12-20T00:36:39;101522.19;;;7.62;88.03
59104;BME280;51449;51.676;5.812;2023-12-20T00:39:02;101524.94;;;7.62;88.16
59104;BME280;51449;51.676;5.812;2023-12-20T00:41:24;101513.16;;;7.62;87.98
59104;BME280;51449;51.676;5.812;2023-12-20T00:43:45;101508.19;;;7.64;88.18
59104;BME280;51449;51.676;5.812;2023-12-20T00:46:07;101505.72;;;7.62;87.85
59104;BME280;51449;51.676;5.812;2023-12-20T00:48:30;101508.53;;;7.57;87.71
59104;BME280;51449;51.676;5.812;2023-12-20T00:50:52;101495.72;;;7.53;87.96
59104;BME280;51449;51.676;5.812;2023-12-20T00:53:14;101505.34;;;7.50;87.42
59104;BME280;51449;51.676;5.812;2023-12-20T00:55:36;101505.97;;;7.47;87.55
59104;BME280;51449;51.676;5.812;2023-12-20T00:57:58;101502.47;;;7.41;87.20
59104;BME280;51449;51.676;5.812;2023-12-20T01:00:21;101506.09;;;7.37;87.87
59104;BME280;51449;51.676;5.812;2023-12-20T01:02:43;101499.28;;;7.34;87.99
59104;BME280;51449;51.676;5.812;2023-12-20T01:05:05;101506.19;;;7.32;87.49
59104;BME280;51449;51.676;5.812;2023-12-20T01:07:28;101498.53;;;7.28;87.82
59104;BME280;51449;51.676;5.812;2023-12-20T01:09:50;101503.47;;;7.26;87.81
59104;BME280;51449;51.676;5.812;2023-12-20T01:12:12;101510.88;;;7.26;87.69
59104;BME280;51449;51.676;5.812;2023-12-20T01:14:33;101517.56;;;7.20;87.64
59104;BME280;51449;51.676;5.812;2023-12-20T01:16:56;101523.94;;;7.15;87.94
59104;BME280;51449;51.676;5.812;2023-12-20T01:19:18;101530.00;;;7.12;87.69
59104;BME280;51449;51.676;5.812;2023-12-20T01:21:40;101517.91;;;7.13;88.28
59104;BME280;51449;51.676;5.812;2023-12-20T01:24:02;101519.31;;;7.11;88.17
59104;BME280;51449;51.676;5.812;2023-12-20T01:26:24;101512.50;;;7.08;87.85
59104;BME280;51449;51.676;5.812;2023-12-20T01:28:45;101525.91;;;7.10;88.16
59104;BME280;51449;51.676;5.812;2023-12-20T01:31:08;101523.47;;;7.08;88.33
59104;BME280;51449;51.676;5.812;2023-12-20T01:33:30;101525.59;;;7.11;88.26
59104;BME280;51449;51.676;5.812;2023-12-20T01:35:52;101530.81;;;7.13;88.46
59104;BME280;51449;51.676;5.812;2023-12-20T01:38:13;101522.59;;;7.13;88.45
59104;BME280;51449;51.676;5.812;2023-12-20T01:40:35;101530.22;;;7.16;89.01
59104;BME280;51449;51.676;5.812;2023-12-20T01:43:00;101531.03;;;7.16;88.58
59104;BME280;51449;51.676;5.812;2023-12-20T01:45:31;101530.22;;;7.16;88.24
59104;BME280;51449;51.676;5.812;2023-12-20T01:47:53;101528.28;;;7.16;87.93
59104;BME280;51449;51.676;5.812;2023-12-20T01:50:17;101514.91;;;7.15;88.21
59104;BME280;51449;51.676;5.812;2023-12-20T01:52:42;101518.50;;;7.10;88.40
59104;BME280;51449;51.676;5.812;2023-12-20T01:55:05;101516.06;;;7.08;88.23
59104;BME280;51449;51.676;5.812;2023-12-20T01:57:34;101516.41;;;7.02;88.15
59104;BME280;51449;51.676;5.812;2023-12-20T01:59:56;101523.00;;;7.01;88.08
59104;BME280;51449;51.676;5.812;2023-12-20T02:02:18;101521.66;;;6.98;88.47
59104;BME280;51449;51.676;5.812;2023-12-20T02:04:41;101518.91;;;6.98;87.93
59104;BME280;51449;51.676;5.812;2023-12-20T02:07:03;101511.50;;;6.99;88.25
59104;BME280;51449;51.676;5.812;2023-12-20T02:09:26;101508.63;;;6.90;88.07
59104;BME280;51449;51.676;5.812;2023-12-20T02:11:49;101504.50;;;6.88;88.05
59104;BME280;51449;51.676;5.812;2023-12-20T02:14:11;101509.72;;;6.89;88.15
59104;BME280;51449;51.676;5.812;2023-12-20T02:16:33;101518.53;;;6.86;88.23
59104;BME280;51449;51.676;5.812;2023-12-20T02:18:55;101512.72;;;6.88;88.49
59104;BME280;51449;51.676;5.812;2023-12-20T02:21:17;101507.25;;;6.88;88.64
59104;BME280;51449;51.676;5.812;2023-12-20T02:23:38;101514.66;;;6.87;88.70
59104;BME280;51449;51.676;5.812;2023-12-20T02:26:00;101515.53;;;6.82;88.38
59104;BME280;51449;51.676;5.812;2023-12-20T02:28:23;101516.13;;;6.79;88.12
59104;BME280;51449;51.676;5.812;2023-12-20T02:30:46;101510.44;;;6.76;88.08
59104;BME280;51449;51.676;5.812;2023-12-20T02:33:10;101520.53;;;6.75;88.45
59104;BME280;51449;51.676;5.812;2023-12-20T02:35:34;101515.38;;;6.74;88.33
59104;BME280;51449;51.676;5.812;2023-12-20T02:37:56;101523.28;;;6.75;88.19
59104;BME280;51449;51.676;5.812;2023-12-20T02:40:17;101519.50;;;6.71;88.41
59104;BME280;51449;51.676;5.812;2023-12-20T02:42:40;101517.06;;;6.70;88.05
59104;BME280;51449;51.676;5.812;2023-12-20T02:45:02;101517.31;;;6.68;88.06
59104;BME280;51449;51.676;5.812;2023-12-20T02:47:23;101516.25;;;6.69;88.41
59104;BME280;51449;51.676;5.812;2023-12-20T02:49:47;101518.97;;;6.69;88.29
59104;BME280;51449;51.676;5.812;2023-12-20T02:52:08;101513.50;;;6.69;87.97
59104;BME280;51449;51.676;5.812;2023-12-20T02:54:30;101522.53;;;6.70;88.40
59104;BME280;51449;51.676;5.812;2023-12-20T02:56:52;101516.81;;;6.66;87.90
59104;BME280;51449;51.676;5.812;2023-12-20T02:59:14;101506.44;;;6.63;88.17
59104;BME280;51449;51.676;5.812;2023-12-20T03:01:41;101507.56;;;6.62;88.01
59104;BME280;51449;51.676;5.812;2023-12-20T03:04:05;101509.75;;;6.60;88.39
59104;BME280;51449;51.676;5.812;2023-12-20T03:06:27;101514.72;;;6.58;88.35
59104;BME280;51449;51.676;5.812;2023-12-20T03:08:49;101511.97;;;6.58;88.92
59104;BME280;51449;51.676;5.812;2023-12-20T03:11:11;101513.91;;;6.57;88.68
59104;BME280;51449;51.676;5.812;2023-12-20T03:13:33;101505.97;;;6.56;89.02
59104;BME280;51449;51.676;5.812;2023-12-20T03:15:54;101507.84;;;6.60;89.03
59104;BME280;51449;51.676;5.812;2023-12-20T03:18:16;101498.22;;;6.63;89.37
59104;BME280;51449;51.676;5.812;2023-12-20T03:20:38;101491.13;;;6.62;89.08
59104;BME280;51449;51.676;5.812;2023-12-20T03:23:00;101488.09;;;6.63;88.89
59104;BME280;51449;51.676;5.812;2023-12-20T03:25:22;101490.00;;;6.63;89.09
59104;BME280;51449;51.676;5.812;2023-12-20T03:27:44;101487.56;;;6.61;88.87
59104;BME280;51449;51.676;5.812;2023-12-20T03:30:06;101491.41;;;6.60;89.10
59104;BME280;51449;51.676;5.812;2023-12-20T03:32:29;101484.31;;;6.59;88.86
59104;BME280;51449;51.676;5.812;2023-12-20T03:34:50;101486.78;;;6.61;89.16
59104;BME280;51449;51.676;5.812;2023-12-20T03:37:12;101492.25;;;6.61;88.83
59104;BME280;51449;51.676;5.812;2023-12-20T03:39:34;101492.25;;;6.61;88.99
59104;BME280;51449;51.676;5.812;2023-12-20T03:41:56;101489.78;;;6.59;88.79
59104;BME280;51449;51.676;5.812;2023-12-20T03:44:18;101486.25;;;6.59;88.94
59104;BME280;51449;51.676;5.812;2023-12-20T03:46:40;101491.72;;;6.59;88.80
59104;BME280;51449;51.676;5.812;2023-12-20T03:49:01;101478.59;;;6.56;88.72
59104;BME280;51449;51.676;5.812;2023-12-20T03:51:25;101486.78;;;6.56;88.39
59104;BME280;51449;51.676;5.812;2023-12-20T03:53:47;101481.09;;;6.52;88.29
59104;BME280;51449;51.676;5.812;2023-12-20T03:56:09;101477.84;;;6.50;88.71
59104;BME280;51449;51.676;5.812;2023-12-20T03:58:31;101479.81;;;6.45;88.23
59104;BME280;51449;51.676;5.812;2023-12-20T04:00:52;101473.81;;;6.42;88.62
59104;BME280;51449;51.676;5.812;2023-12-20T04:03:14;101481.50;;;6.40;89.05
59104;BME280;51449;51.676;5.812;2023-12-20T04:05:36;101482.59;;;6.39;88.76
59104;BME280;51449;51.676;5.812;2023-12-20T04:08:01;101475.22;;;6.40;89.15
59104;BME280;51449;51.676;5.812;2023-12-20T04:10:23;101488.03;;;6.45;89.42
59104;BME280;51449;51.676;5.812;2023-12-20T04:12:45;101498.38;;;6.48;89.28
59104;BME280;51449;51.676;5.812;2023-12-20T04:15:07;101487.38;;;6.53;90.05
59104;BME280;51449;51.676;5.812;2023-12-20T04:17:31;101492.00;;;6.57;89.86
59104;BME280;51449;51.676;5.812;2023-12-20T04:19:52;101488.16;;;6.58;90.22
59104;BME280;51449;51.676;5.812;2023-12-20T04:22:15;101492.81;;;6.58;89.48
59104;BME280;51449;51.676;5.812;2023-12-20T04:24:38;101491.41;;;6.60;90.03
59104;BME280;51449;51.676;5.812;2023-12-20T04:27:00;101487.00;;;6.64;90.41
59104;BME280;51449;51.676;5.812;2023-12-20T04:29:23;101486.94;;;6.70;89.70
59104;BME280;51449;51.676;5.812;2023-12-20T04:31:45;101480.38;;;6.71;89.96
59104;BME280;51449;51.676;5.812;2023-12-20T04:34:06;101486.06;;;6.74;90.11
59104;BME280;51449;51.676;5.812;2023-12-20T04:36:30;101481.63;;;6.78;89.65
59104;BME280;51449;51.676;5.812;2023-12-20T04:38:53;101488.22;;;6.77;90.14
59104;BME280;51449;51.676;5.812;2023-12-20T04:41:15;101486.00;;;6.79;89.78
59104;BME280;51449;51.676;5.812;2023-12-20T04:43:37;101475.56;;;6.81;90.27
59104;BME280;51449;51.676;5.812;2023-12-20T04:45:59;101477.72;;;6.84;90.33
59104;BME280;51449;51.676;5.812;2023-12-20T04:48:21;101478.25;;;6.86;90.04
59104;BME280;51449;51.676;5.812;2023-12-20T04:50:43;101478.78;;;6.89;89.83
59104;BME280;51449;51.676;5.812;2023-12-20T04:53:05;101480.38;;;6.90;90.23
59104;BME280;51449;51.676;5.812;2023-12-20T04:55:27;101477.97;;;6.88;89.90
59104;BME280;51449;51.676;5.812;2023-12-20T04:57:49;101477.66;;;6.90;90.09
59104;BME280;51449;51.676;5.812;2023-12-20T05:00:11;101473.28;;;6.89;89.94
59104;BME280;51449;51.676;5.812;2023-12-20T05:02:34;101487.81;;;6.89;89.76
59104;BME280;51449;51.676;5.812;2023-12-20T05:04:57;101481.50;;;6.89;89.82
59104;BME280;51449;51.676;5.812;2023-12-20T05:07:19;101482.03;;;6.91;89.27
59104;BME280;51449;51.676;5.812;2023-12-20T05:09:41;101476.56;;;6.91;89.29
59104;BME280;51449;51.676;5.812;2023-12-20T05:12:03;101473.00;;;6.90;89.92
59104;BME280;51449;51.676;5.812;2023-12-20T05:14:25;101465.00;;;6.94;90.10
59104;BME280;51449;51.676;5.812;2023-12-20T05:16:47;101460.88;;;6.96;90.14
59104;BME280;51449;51.676;5.812;2023-12-20T05:19:08;101455.63;;;7.00;89.87
59104;BME280;51449;51.676;5.812;2023-12-20T05:21:30;101458.59;;;7.03;89.65
59104;BME280;51449;51.676;5.812;2023-12-20T05:23:53;101459.38;;;7.04;89.95
59104;BME280;51449;51.676;5.812;2023-12-20T05:26:14;101457.97;;;7.06;89.62
59104;BME280;51449;51.676;5.812;2023-12-20T05:28:36;101454.69;;;7.10;89.70
59104;BME280;51449;51.676;5.812;2023-12-20T05:30:58;101455.19;;;7.12;89.59
59104;BME280;51449;51.676;5.812;2023-12-20T05:33:20;101448.59;;;7.13;89.61
59104;BME280;51449;51.676;5.812;2023-12-20T05:35:42;101452.97;;;7.14;89.83
59104;BME280;51449;51.676;5.812;2023-12-20T05:38:03;101450.47;;;7.17;89.48
59104;BME280;51449;51.676;5.812;2023-12-20T05:40:25;101447.41;;;7.19;89.33
59104;BME280;51449;51.676;5.812;2023-12-20T05:42:47;101451.47;;;7.21;89.20
59104;BME280;51449;51.676;5.812;2023-12-20T05:45:09;101444.59;;;7.24;89.51
59104;BME280;51449;51.676;5.812;2023-12-20T05:47:32;101448.66;;;7.26;89.63
59104;BME280;51449;51.676;5.812;2023-12-20T05:49:54;101450.31;;;7.27;89.40
59104;BME280;51449;51.676;5.812;2023-12-20T05:52:16;101450.91;;;7.24;89.36
59104;BME280;51449;51.676;5.812;2023-12-20T05:54:38;101461.81;;;7.29;89.07
59104;BME280;51449;51.676;5.812;2023-12-20T05:56:59;101461.47;;;7.31;89.33
59104;BME280;51449;51.676;5.812;2023-12-20T05:59:22;101467.22;;;7.35;89.32
59104;BME280;51449;51.676;5.812;2023-12-20T06:01:43;101469.94;;;7.35;88.78
59104;BME280;51449;51.676;5.812;2023-12-20T06:04:05;101473.22;;;7.37;88.88
59104;BME280;51449;51.676;5.812;2023-12-20T06:06:27;101466.88;;;7.36;88.60
59104;BME280;51449;51.676;5.812;2023-12-20T06:08:49;101480.03;;;7.39;88.37
59104;BME280;51449;51.676;5.812;2023-12-20T06:11:11;101477.81;;;7.41;88.49
59104;BME280;51449;51.676;5.812;2023-12-20T06:13:33;101481.34;;;7.42;88.31
59104;BME280;51449;51.676;5.812;2023-12-20T06:15:55;101478.03;;;7.45;88.42
59104;BME280;51449;51.676;5.812;2023-12-20T06:18:17;101487.06;;;7.45;88.26
59104;BME280;51449;51.676;5.812;2023-12-20T06:20:39;101483.50;;;7.45;88.12
59104;BME280;51449;51.676;5.812;2023-12-20T06:23:01;101484.03;;;7.47;87.54
59104;BME280;51449;51.676;5.812;2023-12-20T06:25:22;101482.09;;;7.47;88.16
59104;BME280;51449;51.676;5.812;2023-12-20T06:27:44;101478.53;;;7.47;87.50
59104;BME280;51449;51.676;5.812;2023-12-20T06:30:07;101478.81;;;7.45;87.67
59104;BME280;51449;51.676;5.812;2023-12-20T06:32:30;101472.81;;;7.43;87.69
59104;BME280;51449;51.676;5.812;2023-12-20T06:34:52;101466.25;;;7.44;87.46
59104;BME280;51449;51.676;5.812;2023-12-20T06:37:14;101462.38;;;7.45;87.28
59104;BME280;51449;51.676;5.812;2023-12-20T06:39:36;101467.06;;;7.45;87.35
59104;BME280;51449;51.676;5.812;2023-12-20T06:41:58;101470.59;;;7.45;87.45
59104;BME280;51449;51.676;5.812;2023-12-20T06:44:20;101459.63;;;7.45;87.29
59104;BME280;51449;51.676;5.812;2023-12-20T06:46:43;101468.47;;;7.42;87.05
59104;BME280;51449;51.676;5.812;2023-12-20T06:49:04;101467.13;;;7.40;87.09
59104;BME280;51449;51.676;5.812;2023-12-20T06:51:26;101475.63;;;7.38;87.03
59104;BME280;51449;51.676;5.812;2023-12-20T06:53:49;101474.63;;;7.34;86.66
59104;BME280;51449;51.676;5.812;2023-12-20T06:56:11;101471.81;;;7.39;86.72
59104;BME280;51449;51.676;5.812;2023-12-20T06:58:38;101474.31;;;7.36;86.74
59104;BME280;51449;51.676;5.812;2023-12-20T07:01:00;101472.09;;;7.38;86.42
59104;BME280;51449;51.676;5.812;2023-12-20T07:03:22;101474.63;;;7.34;86.75
59104;BME280;51449;51.676;5.812;2023-12-20T07:05:44;101462.88;;;7.28;86.50
59104;BME280;51449;51.676;5.812;2023-12-20T07:08:06;101459.34;;;7.28;86.24
59104;BME280;51449;51.676;5.812;2023-12-20T07:10:28;101464.31;;;7.26;86.47
59104;BME280;51449;51.676;5.812;2023-12-20T07:12:50;101458.28;;;7.24;86.19
59104;BME280;51449;51.676;5.812;2023-12-20T07:15:13;101457.81;;;7.22;86.62
59104;BME280;51449;51.676;5.812;2023-12-20T07:17:34;101449.63;;;7.17;86.42
59104;BME280;51449;51.676;5.812;2023-12-20T07:19:56;101460.81;;;7.20;86.99
59104;BME280;51449;51.676;5.812;2023-12-20T07:22:18;101464.97;;;7.18;86.60
59104;BME280;51449;51.676;5.812;2023-12-20T07:24:40;101455.94;;;7.17;86.72
59104;BME280;51449;51.676;5.812;2023-12-20T07:27:02;101461.91;;;7.19;86.86
59104;BME280;51449;51.676;5.812;2023-12-20T07:29:24;101463.31;;;7.17;86.44
59104;BME280;51449;51.676;5.812;2023-12-20T07:31:46;101457.28;;;7.20;86.61
59104;BME280;51449;51.676;5.812;2023-12-20T07:34:08;101457.56;;;7.18;86.52
59104;BME280;51449;51.676;5.812;2023-12-20T07:36:30;101463.03;;;7.18;86.49
59104;BME280;51449;51.676;5.812;2023-12-20T07:38:51;101459.19;;;7.19;86.28
59104;BME280;51449;51.676;5.812;2023-12-20T07:41:13;101455.41;;;7.15;86.29
59104;BME280;51449;51.676;5.812;2023-12-20T07:43:37;101463.09;;;7.13;85.99
59104;BME280;51449;51.676;5.812;2023-12-20T07:46:06;101462.59;;;7.11;86.35
59104;BME280;51449;51.676;5.812;2023-12-20T07:48:29;101461.19;;;7.14;86.23
59104;BME280;51449;51.676;5.812;2023-12-20T07:50:51;101468.88;;;7.12;86.45
59104;BME280;51449;51.676;5.812;2023-12-20T07:53:14;101460.66;;;7.12;86.31
59104;BME280;51449;51.676;5.812;2023-12-20T07:55:36;101449.41;;;7.13;86.52
59104;BME280;51449;51.676;5.812;2023-12-20T07:57:58;101452.69;;;7.15;86.31
59104;BME280;51449;51.676;5.812;2023-12-20T08:00:20;101453.28;;;7.12;86.42
59104;BME280;51449;51.676;5.812;2023-12-20T08:02:42;101462.59;;;7.11;86.29
59104;BME280;51449;51.676;5.812;2023-12-20T08:05:04;101462.59;;;7.11;86.02
59104;BME280;51449;51.676;5.812;2023-12-20T08:07:26;101470.00;;;7.11;86.26
59104;BME280;51449;51.676;5.812;2023-12-20T08:09:48;101466.66;;;7.14;86.16
59104;BME280;51449;51.676;5.812;2023-12-20T08:12:09;101460.38;;;7.13;86.21
59104;BME280;51449;51.676;5.812;2023-12-20T08:14:32;101476.88;;;7.08;86.51
59104;BME280;51449;51.676;5.812;2023-12-20T08:16:54;101477.41;;;7.10;86.41
59104;BME280;51449;51.676;5.812;2023-12-20T08:19:16;101482.38;;;7.08;86.46
59104;BME280;51449;51.676;5.812;2023-12-20T08:21:38;101488.06;;;7.12;86.62
59104;BME280;51449;51.676;5.812;2023-12-20T08:24:00;101487.25;;;7.11;86.03
59104;BME280;51449;51.676;5.812;2023-12-20T08:26:22;101486.97;;;7.13;86.32
59104;BME280;51449;51.676;5.812;2023-12-20T08:28:46;101481.16;;;7.14;86.07
59104;BME280;51449;51.676;5.812;2023-12-20T08:31:13;101496.28;;;7.12;86.17
59104;BME280;51449;51.676;5.812;2023-12-20T08:33:36;101500.34;;;7.14;86.71
59104;BME280;51449;51.676;5.812;2023-12-20T08:35:58;101495.41;;;7.16;86.45
59104;BME280;51449;51.676;5.812;2023-12-20T08:38:20;101489.03;;;7.21;86.33
59104;BME280;51449;51.676;5.812;2023-12-20T08:40:42;101492.03;;;7.24;86.03
59104;BME280;51449;51.676;5.812;2023-12-20T08:43:03;101484.09;;;7.23;86.20
59104;BME280;51449;51.676;5.812;2023-12-20T08:45:25;101477.78;;;7.22;85.90
59104;BME280;51449;51.676;5.812;2023-12-20T08:47:47;101481.56;;;7.26;85.80
59104;BME280;51449;51.676;5.812;2023-12-20T08:50:10;101457.41;;;7.28;86.08
59104;BME280;51449;51.676;5.812;2023-12-20T08:52:32;101460.16;;;7.28;86.26
59104;BME280;51449;51.676;5.812;2023-12-20T08:54:55;101452.97;;;7.33;85.75
59104;BME280;51449;51.676;5.812;2023-12-20T08:57:19;101446.38;;;7.34;85.82
59104;BME280;51449;51.676;5.812;2023-12-20T08:59:42;101452.38;;;7.36;85.70
59104;BME280;51449;51.676;5.812;2023-12-20T09:02:04;101442.75;;;7.38;85.35
59104;BME280;51449;51.676;5.812;2023-12-20T09:04:26;101443.88;;;7.37;85.85
59104;BME280;51449;51.676;5.812;2023-12-20T09:06:48;101443.88;;;7.37;85.90
59104;BME280;51449;51.676;5.812;2023-12-20T09:09:10;101445.63;;;7.47;85.48
59104;BME280;51449;51.676;5.812;2023-12-20T09:11:35;101446.16;;;7.49;85.48
59104;BME280;51449;51.676;5.812;2023-12-20T09:13:57;101444.75;;;7.52;85.38
59104;BME280;51449;51.676;5.812;2023-12-20T09:16:18;101447.78;;;7.50;85.40
59104;BME280;51449;51.676;5.812;2023-12-20T09:18:40;101450.00;;;7.48;85.13
59104;BME280;51449;51.676;5.812;2023-12-20T09:21:02;101459.78;;;7.54;85.38
59104;BME280;51449;51.676;5.812;2023-12-20T09:23:24;101454.91;;;7.51;85.05
59104;BME280;51449;51.676;5.812;2023-12-20T09:25:47;101452.66;;;7.53;85.39
59104;BME280;51449;51.676;5.812;2023-12-20T09:28:09;101444.16;;;7.55;85.27
59104;BME280;51449;51.676;5.812;2023-12-20T09:30:31;101446.00;;;7.59;85.07
59104;BME280;51449;51.676;5.812;2023-12-20T09:32:54;101456.97;;;7.59;85.42
59104;BME280;51449;51.676;5.812;2023-12-20T09:35:16;101438.22;;;7.66;85.00
59104;BME280;51449;51.676;5.812;2023-12-20T09:37:39;101443.09;;;7.69;84.79
59104;BME280;51449;51.676;5.812;2023-12-20T09:40:06;101460.66;;;7.68;84.74
59104;BME280;51449;51.676;5.812;2023-12-20T09:42:38;101453.44;;;7.72;84.67
59104;BME280;51449;51.676;5.812;2023-12-20T09:45:09;101458.84;;;7.78;84.54
59104;BME280;51449;51.676;5.812;2023-12-20T09:47:35;101453.69;;;7.76;84.27
59104;BME280;51449;51.676;5.812;2023-12-20T09:49:57;101452.88;;;7.76;84.82
59104;BME280;51449;51.676;5.812;2023-12-20T09:52:19;101454.63;;;7.85;84.93
59104;BME280;51449;51.676;5.812;2023-12-20T09:54:44;101454.41;;;7.82;84.73
59104;BME280;51449;51.676;5.812;2023-12-20T09:57:09;101454.13;;;7.83;84.90
59104;BME280;51449;51.676;5.812;2023-12-20T09:59:32;101474.13;;;7.84;84.74
59104;BME280;51449;51.676;5.812;2023-12-20T10:01:55;101462.34;;;7.83;84.75
59104;BME280;51449;51.676;5.812;2023-12-20T10:04:19;101462.56;;;7.87;84.99
59104;BME280;51449;51.676;5.812;2023-12-20T10:06:51;101465.22;;;7.92;84.42
59104;BME280;51449;51.676;5.812;2023-12-20T10:09:13;101464.69;;;7.90;84.28
59104;BME280;51449;51.676;5.812;2023-12-20T10:11:36;101470.69;;;7.92;84.79
59104;BME280;51449;51.676;5.812;2023-12-20T10:13:59;101459.13;;;7.95;84.42
59104;BME280;51449;51.676;5.812;2023-12-20T10:16:25;101459.13;;;7.95;84.22
59104;BME280;51449;51.676;5.812;2023-12-20T10:18:47;101456.59;;;7.99;84.18
59104;BME280;51449;51.676;5.812;2023-12-20T10:21:09;101448.38;;;7.99;84.11
59104;BME280;51449;51.676;5.812;2023-12-20T10:23:32;101450.81;;;8.00;84.48
59104;BME280;51449;51.676;5.812;2023-12-20T10:26:00;101441.97;;;8.03;84.18
59104;BME280;51449;51.676;5.812;2023-12-20T10:28:22;101449.41;;;8.03;84.42
59104;BME280;51449;51.676;5.812;2023-12-20T10:30:47;101460.91;;;8.05;84.43
59104;BME280;51449;51.676;5.812;2023-12-20T10:33:10;101455.91;;;8.07;84.29
59104;BME280;51449;51.676;5.812;2023-12-20T10:35:33;101449.59;;;8.06;84.06
59104;BME280;51449;51.676;5.812;2023-12-20T10:37:56;101449.59;;;8.06;84.35
59104;BME280;51449;51.676;5.812;2023-12-20T10:40:18;101446.84;;;8.06;84.41
59104;BME280;51449;51.676;5.812;2023-12-20T10:42:40;101442.69;;;8.09;84.76
59104;BME280;51449;51.676;5.812;2023-12-20T10:45:03;101431.41;;;8.10;84.56
59104;BME280;51449;51.676;5.812;2023-12-20T10:47:25;101432.75;;;8.13;84.42
59104;BME280;51449;51.676;5.812;2023-12-20T10:49:52;101426.66;;;8.16;84.35
59104;BME280;51449;51.676;5.812;2023-12-20T10:52:14;101433.97;;;8.21;84.24
59104;BME280;51449;51.676;5.812;2023-12-20T10:54:41;101426.25;;;8.23;84.42
59104;BME280;51449;51.676;5.812;2023-12-20T10:57:05;101428.19;;;8.22;84.34
59104;BME280;51449;51.676;5.812;2023-12-20T10:59:28;101427.06;;;8.23;84.62
59104;BME280;51449;51.676;5.812;2023-12-20T11:01:54;101423.72;;;8.26;84.53
59104;BME280;51449;51.676;5.812;2023-12-20T11:04:26;101430.53;;;8.29;84.52
59104;BME280;51449;51.676;5.812;2023-12-20T11:07:00;101428.63;;;8.29;84.24
59104;BME280;51449;51.676;5.812;2023-12-20T11:09:41;101417.22;;;8.36;83.92
59104;BME280;51449;51.676;5.812;2023-12-20T11:12:13;101413.97;;;8.34;83.90
59104;BME280;51449;51.676;5.812;2023-12-20T11:14:49;101402.88;;;8.39;84.10
59104;BME280;51449;51.676;5.812;2023-12-20T11:17:13;101397.91;;;8.41;83.96
59104;BME280;51449;51.676;5.812;2023-12-20T11:22:14;101389.28;;;8.48;83.90
59104;BME280;51449;51.676;5.812;2023-12-20T11:24:38;101388.97;;;8.49;83.53
59104;BME280;51449;51.676;5.812;2023-12-20T11:27:06;101387.25;;;8.53;83.98
59104;BME280;51449;51.676;5.812;2023-12-20T11:29:34;101397.00;;;8.60;83.61
59104;BME280;51449;51.676;5.812;2023-12-20T11:31:59;101396.38;;;8.63;83.50
59104;BME280;51449;51.676;5.812;2023-12-20T11:34:27;101383.28;;;8.60;83.46
59104;BME280;51449;51.676;5.812;2023-12-20T11:36:57;101386.03;;;8.60;83.37
59104;BME280;51449;51.676;5.812;2023-12-20T11:39:21;101389.56;;;8.60;83.14
59104;BME280;51449;51.676;5.812;2023-12-20T11:41:44;101393.13;;;8.61;83.54
59104;BME280;51449;51.676;5.812;2023-12-20T11:44:07;101390.91;;;8.63;83.66
59104;BME280;51449;51.676;5.812;2023-12-20T11:46:31;101396.09;;;8.64;83.47
59104;BME280;51449;51.676;5.812;2023-12-20T11:48:54;101397.41;;;8.67;83.64
59104;BME280;51449;51.676;5.812;2023-12-20T11:51:16;101385.00;;;8.69;83.23
59104;BME280;51449;51.676;5.812;2023-12-20T11:53:39;101382.75;;;8.71;83.20
59104;BME280;51449;51.676;5.812;2023-12-20T11:56:05;101370.34;;;8.74;83.05
59104;BME280;51449;51.676;5.812;2023-12-20T11:58:28;101364.97;;;8.69;83.47
59104;BME280;51449;51.676;5.812;2023-12-20T12:00:50;101368.50;;;8.69;83.19
59104;BME280;51449;51.676;5.812;2023-12-20T12:03:14;101374.13;;;8.64;83.16
59104;BME280;51449;51.676;5.812;2023-12-20T12:05:37;101374.00;;;8.69;83.09
59104;BME280;51449;51.676;5.812;2023-12-20T12:07:59;101370.34;;;8.74;83.10
59104;BME280;51449;51.676;5.812;2023-12-20T12:10:21;101374.41;;;8.76;83.40
59104;BME280;51449;51.676;5.812;2023-12-20T12:12:44;101357.72;;;8.73;83.30
59104;BME280;51449;51.676;5.812;2023-12-20T12:15:06;101364.03;;;8.73;83.63
59104;BME280;51449;51.676;5.812;2023-12-20T12:17:29;101355.28;;;8.71;84.07
59104;BME280;51449;51.676;5.812;2023-12-20T12:20:02;101351.28;;;8.77;83.67
59104;BME280;51449;51.676;5.812;2023-12-20T12:22:26;101340.94;;;8.74;83.97
59104;BME280;51449;51.676;5.812;2023-12-20T12:24:49;101342.25;;;8.77;84.29
59104;BME280;51449;51.676;5.812;2023-12-20T12:27:12;101347.13;;;8.80;84.30
59104;BME280;51449;51.676;5.812;2023-12-20T12:29:35;101345.78;;;8.77;84.65
59104;BME280;51449;51.676;5.812;2023-12-20T12:31:58;101336.44;;;8.78;84.81
59104;BME280;51449;51.676;5.812;2023-12-20T12:34:21;101332.28;;;8.81;84.65
59104;BME280;51449;51.676;5.812;2023-12-20T12:36:43;101337.94;;;8.85;84.63
59104;BME280;51449;51.676;5.812;2023-12-20T12:39:08;101336.22;;;8.89;84.69